Airport ICAO


07:26 UTC

8°C

Clear skies


An affordable passengers' Moving Map for your aircraft. Made for the iPad and the iPhone
More information here

LFPB Le Bourget


Paris FRANCE   VFR CAVOK


METAR LFPB 200700Z AUTO 00000KT CAVOK 08/08 Q1023 NOSIG 0h26min

TAF LFPB 200500Z 2006/2106 16003KT CAVOK PROB30 TEMPO 2006/2007 4000 BR BECMG 2009/2011 19005KT BECMG 2020/2022 13005KT 2h26min





NOTAMS

OPEN